Time;durP1;ratioP1;P1;durP2;ratioP2;P2;SDS_P1;SDS_P2;PMS_P1;PMS_P2;Temp;Humidity;BMP_temperature;BMP_pressure;BME280_temperature;BME280_humidity;BME280_pressure;Samples;Min_cycle;Max_cycle;Signal;HPM_P1;HPM_P2
2023/10/23 00:00:43;;;;;;;;;;;22.50;64.90;;;;;;5112924;28;19957;-67
2023/10/23 00:03:10;;;;;;;;;;;22.60;64.50;;;;;;5113133;28;20413;-68
2023/10/23 00:05:36;;;;;;;;;;;22.70;64.50;;;;;;5113097;28;19968;-72
2023/10/23 00:08:03;;;;;;;;;;;22.70;64.40;;;;;;5113285;28;19908;-67
2023/10/23 00:10:30;;;;;;;;;;;22.70;63.60;;;;;;5112929;28;19908;-70
2023/10/23 00:12:56;;;;;;;;;;;22.80;63.30;;;;;;5112702;28;19911;-67
2023/10/23 00:15:24;;;;;;;;;;;22.90;63.20;;;;;;5113263;28;19912;-68
2023/10/23 00:17:50;;;;;;;;;;;23.10;63.10;;;;;;5113324;28;19919;-66
2023/10/23 00:20:17;;;;;;;;;;;23.20;63.20;;;;;;5113083;28;20348;-69
2023/10/23 00:22:43;;;;;;;;;;;23.30;62.80;;;;;;5112955;28;19908;-69
2023/10/23 00:25:10;;;;;;;;;;;23.40;63.10;;;;;;5112970;28;20423;-71
2023/10/23 00:27:37;;;;;;;;;;;23.40;63.10;;;;;;5113035;28;19922;-69
2023/10/23 00:30:04;;;;;;;;;;;23.40;62.70;;;;;;5113089;28;19953;-68
2023/10/23 00:32:30;;;;;;;;;;;23.60;63.70;;;;;;5112973;28;19965;-67
2023/10/23 00:34:57;;;;;;;;;;;23.70;62.90;;;;;;5112980;28;19918;-70
2023/10/23 00:37:23;;;;;;;;;;;23.90;62.90;;;;;;5113082;28;19961;-70
2023/10/23 00:39:50;;;;;;;;;;;24.00;62.20;;;;;;5113205;28;19908;-68
2023/10/23 00:42:17;;;;;;;;;;;24.20;59.80;;;;;;5116612;28;19908;-70
2023/10/23 00:44:43;;;;;;;;;;;24.30;60.10;;;;;;5116658;28;19933;-67
2023/10/23 00:47:10;;;;;;;;;;;24.30;60.20;;;;;;5116444;28;19915;-67
2023/10/23 00:49:37;;;;;;;;;;;24.40;60.40;;;;;;5116706;28;19924;-73
2023/10/23 00:52:04;;;;;;;;;;;24.50;60.30;;;;;;5116676;28;19908;-71
2023/10/23 00:54:32;;;;;;;;;;;24.60;60.20;;;;;;5116662;28;19955;-71
2023/10/23 00:56:59;;;;;;;;;;;24.80;60.00;;;;;;5116509;28;19908;-70
2023/10/23 00:59:26;;;;;;;;;;;24.80;60.10;;;;;;5116804;28;20362;-68
2023/10/23 01:01:52;;;;;;;;;;;24.90;59.80;;;;;;5116486;28;19919;-71
2023/10/23 01:04:20;;;;;;;;;;;25.10;59.90;;;;;;5116331;28;19915;-65
2023/10/23 01:06:46;;;;;;;;;;;25.30;59.60;;;;;;5116010;28;19914;-64
2023/10/23 01:09:13;;;;;;;;;;;25.50;59.40;;;;;;5116275;28;19907;-66
2023/10/23 01:11:39;;;;;;;;;;;25.70;59.40;;;;;;5116252;28;20347;-65
2023/10/23 01:14:06;;;;;;;;;;;25.90;58.90;;;;;;5116248;28;19907;-74
2023/10/23 01:16:33;;;;;;;;;;;26.00;59.30;;;;;;5116026;28;19998;-66
2023/10/23 01:18:59;;;;;;;;;;;26.00;58.60;;;;;;5116019;28;19939;-72
2023/10/23 01:21:26;;;;;;;;;;;26.10;58.40;;;;;;5116148;28;19915;-69
2023/10/23 01:23:53;;;;;;;;;;;26.10;58.40;;;;;;5115775;28;19908;-66
2023/10/23 01:26:20;;;;;;;;;;;26.30;58.10;;;;;;5115915;28;19916;-70
2023/10/23 01:28:47;;;;;;;;;;;26.40;58.10;;;;;;5115701;28;19916;-66
2023/10/23 01:31:13;;;;;;;;;;;26.60;57.70;;;;;;5115996;28;19908;-66
2023/10/23 01:33:41;;;;;;;;;;;26.80;58.50;;;;;;5115546;28;19908;-68
2023/10/23 01:36:07;;;;;;;;;;;27.00;59.60;;;;;;5115593;28;20010;-66
2023/10/23 01:38:34;;;;;;;;;;;27.20;58.50;;;;;;5115908;28;19915;-71
2023/10/23 01:41:00;;;;;;;;;;;27.50;57.60;;;;;;5115526;28;19914;-67
2023/10/23 01:43:27;;;;;;;;;;;27.70;56.70;;;;;;5115630;28;19995;-66
2023/10/23 01:45:54;;;;;;;;;;;27.70;56.80;;;;;;5115501;28;20373;-67
2023/10/23 01:48:21;;;;;;;;;;;27.70;56.00;;;;;;5115342;28;19963;-70
2023/10/23 01:50:48;;;;;;;;;;;27.50;57.60;;;;;;5115533;28;19915;-67
2023/10/23 01:53:15;;;;;;;;;;;27.80;59.00;;;;;;5114821;28;20328;-69
2023/10/23 01:55:41;;;;;;;;;;;28.10;55.40;;;;;;5115270;28;19907;-68
2023/10/23 01:58:08;;;;;;;;;;;28.30;58.50;;;;;;5115199;28;19955;-67
2023/10/23 02:00:34;;;;;;;;;;;28.40;54.50;;;;;;5115216;28;19998;-68
2023/10/23 02:03:01;;;;;;;;;;;28.00;54.40;;;;;;5115336;28;19908;-68
2023/10/23 02:05:28;;;;;;;;;;;28.10;55.40;;;;;;5115233;28;19916;-66
2023/10/23 02:07:54;;;;;;;;;;;28.10;54.00;;;;;;5115217;28;20337;-65
2023/10/23 02:10:21;;;;;;;;;;;28.20;55.60;;;;;;5114935;28;19941;-67
2023/10/23 02:12:47;;;;;;;;;;;28.50;58.80;;;;;;5114765;28;19912;-68
2023/10/23 02:15:14;;;;;;;;;;;28.60;54.20;;;;;;5115013;28;20257;-65
2023/10/23 02:17:41;;;;;;;;;;;28.80;55.10;;;;;;5114747;28;19922;-67
2023/10/23 02:20:07;;;;;;;;;;;29.10;56.70;;;;;;5115016;28;19908;-67
2023/10/23 02:22:35;;;;;;;;;;;29.30;56.20;;;;;;5114578;28;20044;-66
2023/10/23 02:25:02;;;;;;;;;;;29.50;54.90;;;;;;5114862;28;19920;-72
2023/10/23 02:27:28;;;;;;;;;;;29.60;53.20;;;;;;5115097;28;19915;-70
2023/10/23 02:29:55;;;;;;;;;;;29.60;53.80;;;;;;5114420;28;19980;-72
2023/10/23 02:32:22;;;;;;;;;;;29.90;53.40;;;;;;5096116;28;20356;-66
2023/10/23 02:34:48;;;;;;;;;;;30.10;52.90;;;;;;5114635;28;19908;-68
2023/10/23 02:37:15;;;;;;;;;;;30.70;56.00;;;;;;5114482;28;19930;-68
2023/10/23 02:39:41;;;;;;;;;;;31.30;54.00;;;;;;5114635;28;19944;-70
2023/10/23 02:42:08;;;;;;;;;;;32.00;52.10;;;;;;5114411;28;19908;-70
2023/10/23 02:44:35;;;;;;;;;;;32.80;51.40;;;;;;5114510;28;19922;-66
2023/10/23 02:47:02;;;;;;;;;;;33.60;51.40;;;;;;5114388;28;19914;-67
2023/10/23 02:49:29;;;;;;;;;;;34.20;48.40;;;;;;5114190;28;19919;-67
2023/10/23 02:51:55;;;;;;;;;;;34.60;47.40;;;;;;5114205;28;19922;-71
2023/10/23 02:54:22;;;;;;;;;;;35.20;48.50;;;;;;5114156;28;19915;-71
2023/10/23 02:56:49;;;;;;;;;;;35.90;47.00;;;;;;5114313;28;19908;-71
2023/10/23 02:59:15;;;;;;;;;;;36.40;45.30;;;;;;5114248;28;19912;-71
2023/10/23 03:01:42;;;;;;;;;;;36.90;45.80;;;;;;5113973;28;20006;-72
2023/10/23 03:04:08;;;;;;;;;;;37.80;47.00;;;;;;5113040;28;19912;-73
2023/10/23 03:06:35;;;;;;;;;;;38.20;45.20;;;;;;5095725;28;19915;-68
2023/10/23 03:09:03;;;;;;;;;;;39.40;47.30;;;;;;5114101;28;20413;-69
2023/10/23 03:11:29;;;;;;;;;;;39.80;45.90;;;;;;5114011;28;19907;-69
2023/10/23 03:13:56;;;;;;;;;;;40.70;44.10;;;;;;5113714;28;19908;-67
2023/10/23 03:16:25;;;;;;;;;;;40.70;44.00;;;;;;5114049;28;19907;-66
2023/10/23 03:18:52;;;;;;;;;;;41.10;42.50;;;;;;5113805;28;19908;-69
2023/10/23 03:21:18;;;;;;;;;;;41.30;43.30;;;;;;5113943;28;19915;-72
2023/10/23 03:23:45;;;;;;;;;;;41.30;43.00;;;;;;5113757;28;19912;-73
2023/10/23 03:26:11;;;;;;;;;;;42.00;44.20;;;;;;5113548;28;19950;-70
2023/10/23 03:28:38;;;;;;;;;;;43.00;43.30;;;;;;5113495;28;19955;-67
2023/10/23 03:31:05;;;;;;;;;;;42.00;41.80;;;;;;5113734;28;19955;-70
2023/10/23 03:33:32;;;;;;;;;;;42.10;41.80;;;;;;5113756;28;20408;-71
2023/10/23 03:35:58;;;;;;;;;;;41.50;43.40;;;;;;5113614;28;19908;-69
2023/10/23 03:38:25;;;;;;;;;;;42.00;42.90;;;;;;5113676;28;19915;-71
2023/10/23 03:40:58;;;;;;;;;;;42.40;41.60;;;;;;5113358;28;19915;-69
2023/10/23 03:43:25;;;;;;;;;;;41.90;42.20;;;;;;5113305;28;20347;-69
2023/10/23 03:45:51;;;;;;;;;;;41.80;41.40;;;;;;5113411;28;19916;-70
2023/10/23 03:48:18;;;;;;;;;;;41.70;43.00;;;;;;5113279;28;19920;-68
2023/10/23 03:50:44;;;;;;;;;;;41.60;44.80;;;;;;5113291;28;19991;-70
2023/10/23 03:53:11;;;;;;;;;;;42.30;45.50;;;;;;5113344;28;20356;-73
2023/10/23 03:55:38;;;;;;;;;;;42.90;45.10;;;;;;5095011;28;19908;-70
2023/10/23 03:58:05;;;;;;;;;;;42.30;44.30;;;;;;5113321;28;19915;-72
2023/10/23 04:00:31;;;;;;;;;;;41.30;44.70;;;;;;5112965;28;20053;-72
2023/10/23 04:02:58;;;;;;;;;;;41.70;45.30;;;;;;5112948;28;19915;-70
2023/10/23 04:05:25;;;;;;;;;;;40.80;45.40;;;;;;5113315;28;19938;-68
2023/10/23 04:07:51;;;;;;;;;;;40.40;47.00;;;;;;5113257;28;19912;-71
2023/10/23 04:10:18;;;;;;;;;;;41.20;46.70;;;;;;5113067;28;19907;-70
2023/10/23 04:12:44;;;;;;;;;;;41.60;46.10;;;;;;5113256;28;20329;-66
2023/10/23 04:15:11;;;;;;;;;;;41.60;45.40;;;;;;5095888;28;19960;-67
2023/10/23 04:17:38;;;;;;;;;;;40.90;46.40;;;;;;5117322;28;19914;-72
2023/10/23 04:20:05;;;;;;;;;;;40.70;46.40;;;;;;5098434;28;20341;-71
2023/10/23 04:22:31;;;;;;;;;;;40.00;46.40;;;;;;5116117;28;19908;-73
2023/10/23 04:24:58;;;;;;;;;;;38.00;48.40;;;;;;5116674;28;19923;-70
2023/10/23 04:27:24;;;;;;;;;;;37.70;48.90;;;;;;5116891;28;19908;-70
2023/10/23 04:29:51;;;;;;;;;;;37.10;49.00;;;;;;5116617;28;19907;-73
2023/10/23 04:32:18;;;;;;;;;;;36.50;48.40;;;;;;5116675;28;19929;-76
2023/10/23 04:34:44;;;;;;;;;;;36.60;50.00;;;;;;5115066;28;19912;-73
2023/10/23 04:37:11;;;;;;;;;;;37.50;49.20;;;;;;5104943;28;19959;-68
2023/10/23 04:39:38;;;;;;;;;;;37.80;48.60;;;;;;5102245;28;19915;-66
2023/10/23 04:42:04;;;;;;;;;;;37.70;49.10;;;;;;5112922;28;19911;-67
2023/10/23 04:44:31;;;;;;;;;;;37.50;49.80;;;;;;5118793;27;19923;-68
2023/10/23 04:46:58;;;;;;;;;;;38.10;50.10;;;;;;5112627;28;19915;-67
2023/10/23 04:49:24;;;;;;;;;;;39.60;48.50;;;;;;5115907;28;20295;-71
2023/10/23 04:51:52;;;;;;;;;;;39.60;47.60;;;;;;5108055;27;19990;-69
2023/10/23 04:54:19;;;;;;;;;;;39.10;48.30;;;;;;5114402;27;19920;-66
2023/10/23 04:56:46;;;;;;;;;;;39.50;49.10;;;;;;5110473;28;20376;-64
2023/10/23 04:59:13;;;;;;;;;;;39.30;47.60;;;;;;5114004;28;19915;-74
2023/10/23 05:01:39;;;;;;;;;;;38.80;48.90;;;;;;5089489;28;19912;-72
2023/10/23 05:04:06;;;;;;;;;;;38.80;47.90;;;;;;5112920;28;19972;-66
2023/10/23 05:06:33;;;;;;;;;;;38.10;48.40;;;;;;5113304;27;19916;-65
2023/10/23 05:08:59;;;;;;;;;;;38.60;48.60;;;;;;5106588;28;19935;-73
2023/10/23 05:11:26;;;;;;;;;;;38.00;49.60;;;;;;5111826;28;19911;-66
2023/10/23 05:13:53;;;;;;;;;;;37.70;48.70;;;;;;5112635;27;19912;-67
2023/10/23 05:16:19;;;;;;;;;;;38.20;48.20;;;;;;5111862;28;19919;-71
2023/10/23 05:18:47;;;;;;;;;;;38.40;47.60;;;;;;5110470;28;20070;-69
2023/10/23 05:21:13;;;;;;;;;;;38.70;49.00;;;;;;5081320;28;19916;-69
2023/10/23 05:23:41;;;;;;;;;;;38.50;48.30;;;;;;5106001;28;19935;-70
2023/10/23 05:26:10;;;;;;;;;;;37.60;49.10;;;;;;5112011;28;19919;-71
2023/10/23 05:28:43;;;;;;;;;;;38.30;49.60;;;;;;5100371;28;19908;-69
2023/10/23 05:31:09;;;;;;;;;;;38.80;49.50;;;;;;5110716;28;19912;-73
2023/10/23 05:33:36;;;;;;;;;;;38.80;50.20;;;;;;5099340;28;19919;-71
2023/10/23 05:36:04;;;;;;;;;;;38.70;50.00;;;;;;5109679;28;20364;-67
2023/10/23 05:38:31;;;;;;;;;;;38.50;50.40;;;;;;5106259;28;19912;-64
2023/10/23 05:40:58;;;;;;;;;;;38.80;50.70;;;;;;5112226;28;19915;-68
2023/10/23 05:43:26;;;;;;;;;;;39.60;51.00;;;;;;5112983;28;19911;-74
2023/10/23 05:45:53;;;;;;;;;;;38.50;49.00;;;;;;5111809;28;19981;-72
2023/10/23 05:48:20;;;;;;;;;;;39.00;49.20;;;;;;5112604;28;19959;-69
2023/10/23 05:50:56;;;;;;;;;;;38.60;48.60;;;;;;5111011;28;20002;-73
2023/10/23 05:53:22;;;;;;;;;;;39.10;48.50;;;;;;5110276;28;19958;-71
2023/10/23 05:55:49;;;;;;;;;;;38.50;49.50;;;;;;5110675;28;20041;-68
2023/10/23 05:58:16;;;;;;;;;;;38.60;48.90;;;;;;5104239;28;19919;-73
2023/10/23 06:00:42;;;;;;;;;;;38.00;49.40;;;;;;5102094;28;20045;-73
2023/10/23 06:03:09;;;;;;;;;;;38.40;49.70;;;;;;5112419;28;20072;-73
2023/10/23 06:05:42;;;;;;;;;;;38.00;49.60;;;;;;5110158;28;19935;-68
2023/10/23 06:08:10;;;;;;;;;;;37.70;50.10;;;;;;5103821;28;19918;-64
2023/10/23 06:10:40;;;;;;;;;;;38.00;49.40;;;;;;5105731;28;19949;-70
2023/10/23 06:13:07;;;;;;;;;;;37.80;50.60;;;;;;5108794;28;20463;-69
2023/10/23 06:15:34;;;;;;;;;;;37.00;50.20;;;;;;5103555;28;20046;-68
2023/10/23 06:18:02;;;;;;;;;;;36.90;50.90;;;;;;5100829;28;19934;-71
2023/10/23 06:20:29;;;;;;;;;;;35.30;52.30;;;;;;5110174;28;19911;-73
2023/10/23 06:22:55;;;;;;;;;;;36.20;50.80;;;;;;5101367;28;19957;-71
2023/10/23 06:25:22;;;;;;;;;;;34.90;52.00;;;;;;5102339;28;19973;-73
2023/10/23 06:27:48;;;;;;;;;;;34.80;52.80;;;;;;5097221;28;20257;-68
2023/10/23 06:30:15;;;;;;;;;;;34.80;52.20;;;;;;5112607;28;19915;-71
2023/10/23 06:32:42;;;;;;;;;;;34.20;52.60;;;;;;5108114;28;19911;-68
2023/10/23 06:35:08;;;;;;;;;;;33.60;54.10;;;;;;5110826;28;19920;-68
2023/10/23 06:37:35;;;;;;;;;;;33.50;55.10;;;;;;5110405;28;19912;-67
2023/10/23 06:40:02;;;;;;;;;;;33.50;53.70;;;;;;5106390;28;19912;-70
2023/10/23 06:42:29;;;;;;;;;;;32.80;54.40;;;;;;5109439;28;20601;-66
2023/10/23 06:44:57;;;;;;;;;;;32.40;54.20;;;;;;5109822;28;19920;-68
2023/10/23 06:47:23;;;;;;;;;;;32.70;54.30;;;;;;5107802;28;19920;-69
2023/10/23 06:49:50;;;;;;;;;;;33.20;54.80;;;;;;5109407;28;19930;-71
2023/10/23 06:52:17;;;;;;;;;;;32.00;54.10;;;;;;5106290;28;20356;-68
2023/10/23 06:54:43;;;;;;;;;;;30.90;56.70;;;;;;5111423;28;19951;-70
2023/10/23 06:57:10;;;;;;;;;;;30.80;57.70;;;;;;5109688;28;20418;-68
2023/10/23 06:59:36;;;;;;;;;;;29.60;59.80;;;;;;5107979;28;20010;-69
2023/10/23 07:02:03;;;;;;;;;;;28.80;61.60;;;;;;5111155;28;19912;-69
2023/10/23 07:04:30;;;;;;;;;;;28.00;62.00;;;;;;5111332;28;19918;-72
2023/10/23 07:06:57;;;;;;;;;;;27.40;62.70;;;;;;5108721;28;19926;-72
2023/10/23 07:09:24;;;;;;;;;;;27.40;63.10;;;;;;5111162;28;19912;-70
2023/10/23 07:11:51;;;;;;;;;;;26.50;63.80;;;;;;5106748;28;19918;-71
2023/10/23 07:14:18;;;;;;;;;;;26.30;64.70;;;;;;5112472;28;19912;-70
2023/10/23 07:16:47;;;;;;;;;;;26.00;64.40;;;;;;5103863;28;19908;-66
2023/10/23 07:19:14;;;;;;;;;;;25.80;65.80;;;;;;5092092;28;19912;-64
2023/10/23 07:21:41;;;;;;;;;;;25.50;66.80;;;;;;5100954;28;19930;-65
2023/10/23 07:24:08;;;;;;;;;;;25.00;67.20;;;;;;5092125;28;19922;-65
2023/10/23 07:26:34;;;;;;;;;;;24.70;67.60;;;;;;5093054;28;19912;-67
2023/10/23 07:29:01;;;;;;;;;;;24.60;69.50;;;;;;5106353;28;19911;-71
2023/10/23 07:31:28;;;;;;;;;;;24.40;69.50;;;;;;5106214;28;19965;-68
2023/10/23 07:33:54;;;;;;;;;;;24.20;70.00;;;;;;5091082;28;19912;-69
2023/10/23 07:36:21;;;;;;;;;;;24.10;71.30;;;;;;5108861;28;19912;-67
2023/10/23 07:38:48;;;;;;;;;;;23.90;70.70;;;;;;5092320;28;19912;-68
2023/10/23 07:41:14;;;;;;;;;;;23.60;70.90;;;;;;5096524;28;19920;-64
2023/10/23 07:43:43;;;;;;;;;;;23.40;72.50;;;;;;5098886;28;19907;-66
2023/10/23 07:46:10;;;;;;;;;;;23.30;73.40;;;;;;5107111;28;19921;-68
2023/10/23 07:48:37;;;;;;;;;;;23.10;74.30;;;;;;5091962;28;19942;-71
2023/10/23 07:51:04;;;;;;;;;;;23.10;75.50;;;;;;5097253;28;19922;-68
2023/10/23 07:53:32;;;;;;;;;;;23.20;75.50;;;;;;5111627;28;19915;-69
2023/10/23 07:55:59;;;;;;;;;;;23.20;75.60;;;;;;5093292;28;20382;-65
2023/10/23 07:58:26;;;;;;;;;;;23.30;75.70;;;;;;5096441;28;19911;-65
2023/10/23 08:01:13;;;;;;;;;;;23.20;74.60;;;;;;5112024;28;19915;-66
2023/10/23 08:03:40;;;;;;;;;;;23.30;75.00;;;;;;5097372;28;20379;-66
2023/10/23 08:06:08;;;;;;;;;;;23.30;75.20;;;;;;5098369;28;19916;-66
2023/10/23 08:08:36;;;;;;;;;;;23.30;75.70;;;;;;5100055;28;20291;-70
2023/10/23 08:11:06;;;;;;;;;;;23.30;76.40;;;;;;5097187;28;19915;-68
2023/10/23 08:13:33;;;;;;;;;;;23.10;76.60;;;;;;5111538;28;19912;-68
2023/10/23 08:16:00;;;;;;;;;;;23.00;77.60;;;;;;5110022;28;20261;-70
2023/10/23 08:18:26;;;;;;;;;;;22.90;77.60;;;;;;5111238;28;19994;-70
2023/10/23 08:20:53;;;;;;;;;;;22.80;78.20;;;;;;5110117;28;20371;-67
2023/10/23 08:23:20;;;;;;;;;;;22.70;79.10;;;;;;5107826;28;19912;-67
2023/10/23 08:25:46;;;;;;;;;;;22.50;79.90;;;;;;5090408;28;20351;-67
2023/10/23 08:28:13;;;;;;;;;;;22.50;80.80;;;;;;5106933;28;19912;-66
2023/10/23 08:30:40;;;;;;;;;;;22.50;80.70;;;;;;5105381;28;19931;-70
2023/10/23 08:33:07;;;;;;;;;;;22.40;81.30;;;;;;5101187;28;20330;-67
2023/10/23 08:35:34;;;;;;;;;;;22.50;81.80;;;;;;5109280;28;19911;-67
2023/10/23 08:38:00;;;;;;;;;;;22.50;81.80;;;;;;5104025;28;19965;-66
2023/10/23 08:40:27;;;;;;;;;;;22.40;82.50;;;;;;5109449;28;19915;-66
2023/10/23 08:42:53;;;;;;;;;;;22.30;82.30;;;;;;5110919;28;19918;-68
2023/10/23 08:45:20;;;;;;;;;;;22.30;83.10;;;;;;5108446;28;19916;-70
2023/10/23 08:47:47;;;;;;;;;;;22.40;83.40;;;;;;5111644;28;20014;-68
2023/10/23 08:50:14;;;;;;;;;;;22.50;83.60;;;;;;5107959;28;19918;-67
2023/10/23 08:52:47;;;;;;;;;;;22.40;83.70;;;;;;5110146;28;20015;-67
2023/10/23 08:55:14;;;;;;;;;;;22.30;84.10;;;;;;5110229;28;19914;-66
2023/10/23 08:58:01;;;;;;;;;;;22.20;84.70;;;;;;5111428;28;19908;-70
2023/10/23 09:00:28;;;;;;;;;;;22.20;85.30;;;;;;5108538;28;19969;-66
2023/10/23 09:02:55;;;;;;;;;;;22.20;86.00;;;;;;5112348;28;19912;-69
2023/10/23 09:05:23;;;;;;;;;;;22.20;87.00;;;;;;5115120;28;20620;-65
2023/10/23 09:07:50;;;;;;;;;;;22.20;87.70;;;;;;5115178;28;19915;-65
2023/10/23 09:10:17;;;;;;;;;;;22.20;88.00;;;;;;5112073;28;19912;-68
2023/10/23 09:12:43;;;;;;;;;;;22.20;88.30;;;;;;5114390;28;19918;-69
2023/10/23 09:15:13;;;;;;;;;;;22.10;88.90;;;;;;5114269;28;19920;-65
2023/10/23 09:17:44;;;;;;;;;;;22.00;88.60;;;;;;5112710;28;19952;-65
2023/10/23 09:20:19;;;;;;;;;;;22.00;90.00;;;;;;5114482;28;19947;-69
2023/10/23 09:22:49;;;;;;;;;;;22.00;90.20;;;;;;5113014;28;19912;-68
2023/10/23 09:25:15;;;;;;;;;;;22.00;90.30;;;;;;5113447;28;19919;-74
2023/10/23 09:27:42;;;;;;;;;;;21.90;90.50;;;;;;5113455;28;20458;-67
2023/10/23 09:30:09;;;;;;;;;;;21.90;90.70;;;;;;5113579;28;19912;-67
2023/10/23 09:32:37;;;;;;;;;;;21.90;90.90;;;;;;5112216;28;19961;-71
2023/10/23 09:35:07;;;;;;;;;;;21.90;91.60;;;;;;5112820;28;19918;-67
2023/10/23 09:37:33;;;;;;;;;;;21.90;91.60;;;;;;5096075;28;19918;-67
2023/10/23 09:40:00;;;;;;;;;;;21.80;91.90;;;;;;5113641;28;20296;-66
2023/10/23 09:42:36;;;;;;;;;;;21.80;92.30;;;;;;5107084;28;19912;-70
2023/10/23 09:45:04;;;;;;;;;;;21.80;92.70;;;;;;5111725;28;20116;-68
2023/10/23 09:47:31;;;;;;;;;;;21.80;93.20;;;;;;5114466;28;19911;-68
2023/10/23 09:50:07;;;;;;;;;;;21.80;93.20;;;;;;5111368;28;19934;-67
2023/10/23 09:52:45;;;;;;;;;;;21.70;93.50;;;;;;5109671;28;19915;-67
2023/10/23 09:55:12;;;;;;;;;;;21.70;94.10;;;;;;5111610;28;19954;-67
2023/10/23 09:57:44;;;;;;;;;;;21.60;94.20;;;;;;5111768;28;20386;-69
2023/10/23 10:00:15;;;;;;;;;;;21.50;94.80;;;;;;5113435;28;19907;-69
2023/10/23 10:02:56;;;;;;;;;;;21.50;95.30;;;;;;5110809;28;20318;-69
2023/10/23 10:05:27;;;;;;;;;;;21.50;95.70;;;;;;5112028;28;20349;-69
2023/10/23 10:08:03;;;;;;;;;;;21.40;96.10;;;;;;5113652;28;19908;-66
2023/10/23 10:10:34;;;;;;;;;;;21.40;96.40;;;;;;5109612;28;20291;-68
2023/10/23 10:13:02;;;;;;;;;;;21.30;96.70;;;;;;5110502;28;20342;-71
2023/10/23 10:15:30;;;;;;;;;;;21.30;97.30;;;;;;5114022;28;20504;-70
2023/10/23 10:17:56;;;;;;;;;;;21.30;97.90;;;;;;5113579;28;19916;-69
2023/10/23 10:20:24;;;;;;;;;;;21.40;98.20;;;;;;5111210;28;19912;-71
2023/10/23 10:22:57;;;;;;;;;;;21.30;98.40;;;;;;5103929;28;19916;-74
2023/10/23 10:25:24;;;;;;;;;;;21.30;99.00;;;;;;5106660;28;19966;-68
2023/10/23 10:27:58;;;;;;;;;;;21.30;99.40;;;;;;5112357;28;19930;-70
2023/10/23 10:30:40;;;;;;;;;;;21.40;99.50;;;;;;5107907;28;19924;-68
2023/10/23 10:33:11;;;;;;;;;;;21.30;99.50;;;;;;5106739;28;20344;-68
2023/10/23 10:35:38;;;;;;;;;;;21.30;99.90;;;;;;5112963;28;20002;-72
2023/10/23 10:38:10;;;;;;;;;;;21.30;99.90;;;;;;5113439;28;19914;-67
2023/10/23 10:40:57;;;;;;;;;;;21.20;99.90;;;;;;5108389;28;19912;-70
2023/10/23 10:43:25;;;;;;;;;;;21.20;99.90;;;;;;5091943;28;20377;-65
2023/10/23 10:45:53;;;;;;;;;;;21.20;99.90;;;;;;5111955;28;20374;-63
2023/10/23 10:48:20;;;;;;;;;;;21.10;99.90;;;;;;5110388;28;19923;-69
2023/10/23 10:50:47;;;;;;;;;;;21.20;99.90;;;;;;5110888;28;19912;-66
2023/10/23 10:53:15;;;;;;;;;;;21.10;99.90;;;;;;5108898;28;19914;-71
2023/10/23 10:55:43;;;;;;;;;;;21.10;99.90;;;;;;5112542;28;19919;-67
2023/10/23 10:58:10;;;;;;;;;;;21.10;99.90;;;;;;5110243;28;20054;-68
2023/10/23 11:00:38;;;;;;;;;;;21.10;99.90;;;;;;5112844;28;19912;-70
2023/10/23 11:03:05;;;;;;;;;;;21.00;99.90;;;;;;5109790;28;19943;-66
2023/10/23 11:05:32;;;;;;;;;;;21.00;99.90;;;;;;5110582;28;20386;-66
2023/10/23 11:08:00;;;;;;;;;;;21.00;99.90;;;;;;5105740;28;20431;-66
2023/10/23 11:10:27;;;;;;;;;;;21.00;99.90;;;;;;5107597;28;19981;-69
2023/10/23 11:12:54;;;;;;;;;;;21.00;99.90;;;;;;5097833;28;19912;-69
2023/10/23 11:15:20;;;;;;;;;;;21.00;99.90;;;;;;5107377;28;19911;-70
2023/10/23 11:17:47;;;;;;;;;;;20.90;99.90;;;;;;5109209;28;19908;-69
2023/10/23 11:20:15;;;;;;;;;;;20.90;99.90;;;;;;5112039;28;19920;-68
2023/10/23 11:22:43;;;;;;;;;;;20.80;99.90;;;;;;5105058;28;19908;-72
2023/10/23 11:25:10;;;;;;;;;;;20.80;99.90;;;;;;5110529;28;19927;-73
2023/10/23 11:27:37;;;;;;;;;;;20.90;99.90;;;;;;5108745;28;19951;-72
2023/10/23 11:30:05;;;;;;;;;;;20.90;99.90;;;;;;5110077;28;19916;-67
2023/10/23 11:32:31;;;;;;;;;;;20.90;99.90;;;;;;5112562;28;19907;-73
2023/10/23 11:35:03;;;;;;;;;;;20.90;99.90;;;;;;5112416;28;20380;-72
2023/10/23 11:37:40;;;;;;;;;;;20.90;99.90;;;;;;5109124;28;19955;-70
2023/10/23 11:40:07;;;;;;;;;;;20.80;99.90;;;;;;5109487;28;20015;-72
2023/10/23 11:42:43;;;;;;;;;;;20.80;99.90;;;;;;5109789;28;20353;-69
2023/10/23 11:45:11;;;;;;;;;;;20.70;99.90;;;;;;5110713;28;19912;-68
2023/10/23 11:47:38;;;;;;;;;;;20.70;99.90;;;;;;5111495;28;19920;-69
2023/10/23 11:50:10;;;;;;;;;;;20.70;99.90;;;;;;5112264;28;20371;-68
2023/10/23 11:52:43;;;;;;;;;;;20.70;99.90;;;;;;5112972;28;19908;-69
2023/10/23 11:55:14;;;;;;;;;;;20.70;99.90;;;;;;5111029;28;19908;-70
2023/10/23 11:57:54;;;;;;;;;;;20.70;99.90;;;;;;5112565;28;19912;-70
2023/10/23 12:00:21;;;;;;;;;;;20.80;99.90;;;;;;5113011;28;20419;-68
2023/10/23 12:02:48;;;;;;;;;;;20.70;99.90;;;;;;5113063;28;19911;-70
2023/10/23 12:05:17;;;;;;;;;;;20.70;99.90;;;;;;5112980;28;19916;-73
2023/10/23 12:07:52;;;;;;;;;;;20.70;99.90;;;;;;5100778;28;19958;-71
2023/10/23 12:10:20;;;;;;;;;;;20.70;99.90;;;;;;5086482;28;20373;-73
2023/10/23 12:12:47;;;;;;;;;;;20.60;99.90;;;;;;5113011;28;19908;-73
2023/10/23 12:15:17;;;;;;;;;;;20.50;99.90;;;;;;5094493;28;19907;-73
2023/10/23 12:17:43;;;;;;;;;;;20.60;99.90;;;;;;5101287;28;20015;-68
2023/10/23 12:20:21;;;;;;;;;;;20.50;99.90;;;;;;5092965;28;19915;-71
2023/10/23 12:22:49;;;;;;;;;;;20.50;99.90;;;;;;5092721;28;19965;-70
2023/10/23 12:25:18;;;;;;;;;;;20.50;99.90;;;;;;5092520;28;19955;-70
2023/10/23 12:27:45;;;;;;;;;;;20.40;99.90;;;;;;5105793;28;19947;-66
2023/10/23 12:30:12;;;;;;;;;;;20.30;99.90;;;;;;5112925;28;20280;-67
2023/10/23 12:32:42;;;;;;;;;;;20.30;99.90;;;;;;5112860;28;19999;-70
2023/10/23 12:35:09;;;;;;;;;;;20.30;99.90;;;;;;5113036;28;19915;-71
2023/10/23 12:37:37;;;;;;;;;;;20.30;99.90;;;;;;5103424;28;20006;-68
2023/10/23 12:40:08;;;;;;;;;;;20.20;99.90;;;;;;5096196;28;19919;-69
2023/10/23 12:42:35;;;;;;;;;;;20.20;99.90;;;;;;5096145;28;20357;-70
2023/10/23 12:45:03;;;;;;;;;;;20.20;99.90;;;;;;5096115;28;19935;-72
2023/10/23 12:47:29;;;;;;;;;;;20.20;99.90;;;;;;5107030;28;20016;-66
2023/10/23 12:49:56;;;;;;;;;;;20.10;99.90;;;;;;5116893;28;19914;-68
2023/10/23 12:52:23;;;;;;;;;;;20.10;99.90;;;;;;5098213;28;19908;-71
2023/10/23 12:54:49;;;;;;;;;;;20.10;99.90;;;;;;5114736;28;19920;-66
2023/10/23 12:57:16;;;;;;;;;;;20.10;99.90;;;;;;5106925;28;20277;-69
2023/10/23 12:59:43;;;;;;;;;;;20.00;99.90;;;;;;5095757;28;19911;-71
2023/10/23 13:02:09;;;;;;;;;;;20.00;99.90;;;;;;5095875;28;20373;-74
2023/10/23 13:04:36;;;;;;;;;;;19.90;99.90;;;;;;5095875;28;19955;-71
2023/10/23 13:07:02;;;;;;;;;;;19.90;99.90;;;;;;5102691;28;20350;-69
2023/10/23 13:09:29;;;;;;;;;;;19.90;99.90;;;;;;5115919;28;20322;-72
2023/10/23 13:11:56;;;;;;;;;;;19.90;99.90;;;;;;5115874;28;19996;-74
2023/10/23 13:14:22;;;;;;;;;;;19.80;99.90;;;;;;5116055;28;19908;-70
2023/10/23 13:16:49;;;;;;;;;;;19.80;99.90;;;;;;5109136;28;19912;-68
2023/10/23 13:19:16;;;;;;;;;;;19.70;99.90;;;;;;5095205;28;19969;-66
2023/10/23 13:21:42;;;;;;;;;;;19.70;99.90;;;;;;5095666;28;19977;-67
2023/10/23 13:24:11;;;;;;;;;;;19.70;99.90;;;;;;5095476;28;19908;-69
2023/10/23 13:26:38;;;;;;;;;;;19.60;99.90;;;;;;5099407;28;20432;-65
2023/10/23 13:29:06;;;;;;;;;;;19.60;99.90;;;;;;5115851;28;19995;-68
2023/10/23 13:31:32;;;;;;;;;;;19.50;99.90;;;;;;5116006;28;19930;-73
2023/10/23 13:33:59;;;;;;;;;;;19.50;99.90;;;;;;5115683;28;19908;-71
2023/10/23 13:36:26;;;;;;;;;;;19.50;99.90;;;;;;5110167;28;19913;-74
2023/10/23 13:38:52;;;;;;;;;;;19.40;99.90;;;;;;5095280;28;19916;-66
2023/10/23 13:41:19;;;;;;;;;;;19.30;99.90;;;;;;5095268;28;20387;-68
2023/10/23 13:43:46;;;;;;;;;;;19.30;99.90;;;;;;5095322;28;20300;-70
2023/10/23 13:46:12;;;;;;;;;;;19.30;99.90;;;;;;5097762;28;20323;-68
2023/10/23 13:48:39;;;;;;;;;;;19.20;99.90;;;;;;5114357;28;19926;-67
2023/10/23 13:51:05;;;;;;;;;;;19.10;99.90;;;;;;5115674;28;19915;-67
2023/10/23 13:53:32;;;;;;;;;;;19.20;99.90;;;;;;5115383;28;19907;-71
2023/10/23 13:55:59;;;;;;;;;;;19.10;99.90;;;;;;5111620;28;19950;-64
2023/10/23 13:58:26;;;;;;;;;;;19.20;99.90;;;;;;5114277;28;19919;-74
2023/10/23 14:00:52;;;;;;;;;;;19.10;99.90;;;;;;5115568;28;19969;-72
2023/10/23 14:03:19;;;;;;;;;;;19.10;99.90;;;;;;5115118;28;19977;-73
2023/10/23 14:05:46;;;;;;;;;;;18.90;99.90;;;;;;5113473;28;19915;-70
2023/10/23 14:08:12;;;;;;;;;;;19.00;99.90;;;;;;5094827;28;20354;-67
2023/10/23 14:10:39;;;;;;;;;;;18.90;99.90;;;;;;5094728;28;19914;-68
2023/10/23 14:13:06;;;;;;;;;;;18.90;99.90;;;;;;5094781;28;19915;-71
2023/10/23 14:15:33;;;;;;;;;;;18.90;99.90;;;;;;5096233;28;19908;-75
2023/10/23 14:17:59;;;;;;;;;;;18.90;99.90;;;;;;5115077;28;20387;-71